createdAt,value
2022-08-26T00:02:07.438Z,6.65
2022-08-26T00:04:36.362Z,6.05
2022-08-26T00:07:04.704Z,5.88
2022-08-26T00:09:39.083Z,6.40
2022-08-26T00:12:12.168Z,5.90
2022-08-26T00:14:41.260Z,6.07
2022-08-26T00:17:09.941Z,5.80
2022-08-26T00:19:38.054Z,6.43
2022-08-26T00:22:07.080Z,6.47
2022-08-26T00:24:35.480Z,6.70
2022-08-26T00:27:04.052Z,5.97
2022-08-26T00:29:37.688Z,6.13
2022-08-26T00:32:07.008Z,6.15
2022-08-26T00:34:36.248Z,6.20
2022-08-26T00:37:04.497Z,6.40
2022-08-26T00:39:37.950Z,6.28
2022-08-26T00:42:06.200Z,6.57
2022-08-26T00:44:35.860Z,6.93
2022-08-26T00:47:06.973Z,6.78
2022-08-26T00:49:38.442Z,7.50
2022-08-26T00:52:12.088Z,6.38
2022-08-26T00:54:47.050Z,6.50
2022-08-26T00:57:19.214Z,6.53
2022-08-26T00:59:54.632Z,6.97
2022-08-26T01:02:22.958Z,6.60
2022-08-26T01:04:55.646Z,7.10
2022-08-26T01:07:25.854Z,6.95
2022-08-26T01:09:54.033Z,6.63
2022-08-26T01:12:23.130Z,6.85
2022-08-26T01:14:53.176Z,6.65
2022-08-26T01:17:21.774Z,7.53
2022-08-26T01:19:53.491Z,7.28
2022-08-26T01:22:28.676Z,7.28
2022-08-26T01:25:00.382Z,6.93
2022-08-26T01:27:32.978Z,6.80
2022-08-26T01:30:03.710Z,7.43
2022-08-26T01:32:34.524Z,6.85
2022-08-26T01:35:03.990Z,6.70
2022-08-26T01:37:39.010Z,6.80
2022-08-26T01:40:17.857Z,6.63
2022-08-26T01:42:49.238Z,6.57
2022-08-26T01:45:20.985Z,7.18
2022-08-26T01:47:56.510Z,7.05
2022-08-26T01:50:30.725Z,6.75
2022-08-26T01:53:02.702Z,7.55
2022-08-26T01:55:34.200Z,7.10
2022-08-26T01:58:06.551Z,6.85
2022-08-26T02:00:35.336Z,7.50
2022-08-26T02:03:18.051Z,7.95
2022-08-26T02:05:48.730Z,7.22
2022-08-26T02:08:24.802Z,7.28
2022-08-26T02:10:56.001Z,7.70
2022-08-26T02:13:27.536Z,7.50
2022-08-26T02:15:56.278Z,7.60
2022-08-26T02:18:26.492Z,7.50
2022-08-26T02:20:57.110Z,7.95
2022-08-26T02:23:26.029Z,7.45
2022-08-26T02:26:02.229Z,8.40
2022-08-26T02:28:36.934Z,7.65
2022-08-26T02:31:05.042Z,8.13
2022-08-26T02:33:33.247Z,7.57
2022-08-26T02:36:04.077Z,7.32
2022-08-26T02:38:32.092Z,7.97
2022-08-26T02:41:01.627Z,6.88
2022-08-26T02:43:31.622Z,7.47
2022-08-26T02:46:02.319Z,7.60
2022-08-26T02:48:31.238Z,7.05
2022-08-26T02:51:01.926Z,7.63
2022-08-26T02:53:31.970Z,7.55
2022-08-26T02:56:05.293Z,7.55
2022-08-26T03:01:01.742Z,7.22
2022-08-26T03:03:33.665Z,8.18
2022-08-26T03:06:01.996Z,7.57
2022-08-26T03:08:30.381Z,6.93
2022-08-26T03:10:58.204Z,7.18
2022-08-26T03:13:31.032Z,7.35
2022-08-26T03:16:02.439Z,6.70
2022-08-26T03:18:30.795Z,7.90
2022-08-26T03:20:59.194Z,6.60
2022-08-26T03:23:27.174Z,7.18
2022-08-26T03:25:57.025Z,6.97
2022-08-26T03:28:27.289Z,6.95
2022-08-26T03:30:56.025Z,6.75
2022-08-26T03:33:24.413Z,6.60
2022-08-26T03:35:53.734Z,6.88
2022-08-26T03:38:25.273Z,6.90
2022-08-26T03:40:53.620Z,7.40
2022-08-26T03:43:22.525Z,6.88
2022-08-26T03:45:51.289Z,6.75
2022-08-26T03:48:20.658Z,7.88
2022-08-26T03:50:48.804Z,7.07
2022-08-26T03:53:20.543Z,7.15
2022-08-26T03:55:52.026Z,7.30
2022-08-26T03:58:20.920Z,7.28
2022-08-26T04:00:49.533Z,7.55
2022-08-26T04:03:38.756Z,7.38
2022-08-26T04:06:07.514Z,6.97
2022-08-26T04:08:35.831Z,7.15
2022-08-26T04:11:04.323Z,6.95
2022-08-26T04:13:33.751Z,7.63
2022-08-26T04:16:01.557Z,7.43
2022-08-26T04:18:37.047Z,6.45
2022-08-26T04:21:07.924Z,7.50
2022-08-26T04:23:47.166Z,7.15
2022-08-26T04:26:16.436Z,6.95
2022-08-26T04:28:45.235Z,6.93
2022-08-26T04:31:14.754Z,6.90
2022-08-26T04:33:45.758Z,6.93
2022-08-26T04:36:15.394Z,6.75
2022-08-26T04:38:43.308Z,7.40
2022-08-26T04:41:15.582Z,7.05
2022-08-26T04:43:45.455Z,6.50
2022-08-26T04:46:17.444Z,6.28
2022-08-26T04:48:49.146Z,7.18
2022-08-26T04:51:17.694Z,6.68
2022-08-26T04:53:46.351Z,7.32
2022-08-26T04:56:14.447Z,6.38
2022-08-26T04:58:42.471Z,6.35
2022-08-26T05:01:10.710Z,6.97
2022-08-26T05:03:39.014Z,7.30
2022-08-26T05:06:12.434Z,7.18
2022-08-26T05:08:41.034Z,7.65
2022-08-26T05:11:10.883Z,6.95
2022-08-26T05:13:39.576Z,7.35
2022-08-26T05:16:09.522Z,7.32
2022-08-26T05:18:41.325Z,7.03
2022-08-26T05:21:20.409Z,7.30
2022-08-26T05:23:51.421Z,6.75
2022-08-26T05:26:20.246Z,6.72
2022-08-26T05:28:54.718Z,6.38
2022-08-26T05:31:25.633Z,6.50
2022-08-26T05:33:53.766Z,6.90
2022-08-26T05:36:26.994Z,7.13
2022-08-26T05:38:55.620Z,6.90
2022-08-26T05:41:34.483Z,7.25
2022-08-26T05:44:07.436Z,6.10
2022-08-26T05:46:37.818Z,6.90
2022-08-26T05:49:12.791Z,7.63
2022-08-26T05:51:46.410Z,7.38
2022-08-26T05:54:21.728Z,7.07
2022-08-26T05:56:51.219Z,7.53
2022-08-26T05:59:24.130Z,6.60
2022-08-26T06:01:54.839Z,7.93
2022-08-26T06:04:27.515Z,7.13
2022-08-26T06:06:59.919Z,7.35
2022-08-26T06:09:28.462Z,6.95
2022-08-26T06:11:59.067Z,6.97
2022-08-26T06:14:27.039Z,8.05
2022-08-26T06:16:55.364Z,7.90
2022-08-26T06:19:24.318Z,6.70
2022-08-26T06:21:54.711Z,7.70
2022-08-26T06:24:42.257Z,7.55
2022-08-26T06:27:13.925Z,7.43
2022-08-26T06:29:43.601Z,7.40
2022-08-26T06:32:11.604Z,8.05
2022-08-26T06:34:39.674Z,8.38
2022-08-26T06:37:08.925Z,7.22
2022-08-26T06:39:41.210Z,7.50
2022-08-26T06:42:10.811Z,7.93
2022-08-26T06:44:40.912Z,7.25
2022-08-26T06:47:09.157Z,7.70
2022-08-26T06:49:38.290Z,7.82
2022-08-26T06:52:07.850Z,7.43
2022-08-26T07:52:26.670Z,6.90
2022-08-26T07:54:58.008Z,6.95
2022-08-26T07:57:26.508Z,7.38
2022-08-26T07:59:55.737Z,8.05
2022-08-26T08:02:25.556Z,6.93
2022-08-26T08:04:54.722Z,7.53
2022-08-26T08:07:38.385Z,7.55
2022-08-26T08:10:15.123Z,7.35
2022-08-26T08:12:44.020Z,6.75
2022-08-26T08:15:13.965Z,6.80
2022-08-26T08:17:43.934Z,7.05
2022-08-26T08:20:14.809Z,7.00
2022-08-26T08:22:43.651Z,7.15
2022-08-26T08:25:13.870Z,7.20
2022-08-26T08:27:45.216Z,7.40
2022-08-26T08:30:14.285Z,7.10
2022-08-26T08:32:44.673Z,6.78
2022-08-26T08:35:15.617Z,7.15
2022-08-26T08:37:45.327Z,8.32
2022-08-26T08:40:18.631Z,7.18
2022-08-26T08:45:26.638Z,7.15
2022-08-26T08:47:57.997Z,6.95
2022-08-26T08:50:31.005Z,6.68
2022-08-26T08:55:48.868Z,6.88
2022-08-26T08:58:20.601Z,6.90
2022-08-26T09:00:59.217Z,6.90
2022-08-26T09:03:46.636Z,6.53
2022-08-26T09:06:19.008Z,7.03
2022-08-26T09:08:50.120Z,6.53
2022-08-26T09:11:21.328Z,6.40
2022-08-26T09:13:53.932Z,7.23
2022-08-26T09:16:27.577Z,6.38
2022-08-26T09:19:07.134Z,6.20
2022-08-26T09:21:35.852Z,6.55
2022-08-26T09:24:04.858Z,6.10
2022-08-26T09:26:47.404Z,6.55
2022-08-26T09:31:54.100Z,6.55
2022-08-26T09:34:25.092Z,6.72
2022-08-26T09:36:55.215Z,7.30
2022-08-26T09:39:31.715Z,6.28
2022-08-26T09:42:11.242Z,6.43
2022-08-26T09:45:00.224Z,6.75
2022-08-26T09:47:32.011Z,6.70
2022-08-26T09:50:09.668Z,6.82
2022-08-26T09:52:38.109Z,7.25
2022-08-26T09:55:13.698Z,8.15
2022-08-26T09:57:52.180Z,7.20
2022-08-26T10:00:33.498Z,7.15
2022-08-26T10:03:03.749Z,8.05
2022-08-26T10:05:38.279Z,8.23
2022-08-26T10:08:23.044Z,7.97
2022-08-26T10:10:53.287Z,6.70
2022-08-26T10:13:29.581Z,7.15
2022-08-26T10:16:10.638Z,7.28
2022-08-26T10:18:43.917Z,7.40
2022-08-26T10:21:19.978Z,7.43
2022-08-26T10:23:53.029Z,7.47
2022-08-26T10:26:26.583Z,8.38
2022-08-26T10:29:06.506Z,7.97
2022-08-26T10:31:40.949Z,8.70
2022-08-26T10:34:12.481Z,7.90
2022-08-26T10:37:14.844Z,7.30
2022-08-26T10:39:49.695Z,7.70
2022-08-26T10:42:31.111Z,7.82
2022-08-26T10:45:11.802Z,7.47
2022-08-26T10:47:48.893Z,7.70
2022-08-26T10:50:18.858Z,8.23
2022-08-26T10:53:01.347Z,7.18
2022-08-26T10:55:36.592Z,7.90
2022-08-26T10:58:26.405Z,7.90
2022-08-26T11:01:22.819Z,8.15
2022-08-26T11:03:59.539Z,7.55
2022-08-26T11:06:30.044Z,7.05
2022-08-26T11:09:01.029Z,7.38
2022-08-26T11:11:51.811Z,7.45
2022-08-26T11:14:41.030Z,7.63
2022-08-26T11:17:55.709Z,8.00
2022-08-26T11:20:37.298Z,7.93
2022-08-26T11:23:50.460Z,7.60
2022-08-26T11:26:35.433Z,8.63
2022-08-26T11:29:11.967Z,7.78
2022-08-26T11:31:57.120Z,7.70
2022-08-26T11:34:56.379Z,7.75
2022-08-26T11:37:32.466Z,8.00
2022-08-26T11:40:03.205Z,9.15
2022-08-26T11:42:37.797Z,8.43
2022-08-26T11:45:20.480Z,8.57
2022-08-26T11:47:51.227Z,8.60
2022-08-26T11:50:21.207Z,8.70
2022-08-26T11:53:01.860Z,8.70
2022-08-26T11:55:31.858Z,8.98
2022-08-26T11:58:02.422Z,8.35
2022-08-26T12:03:09.378Z,8.18
2022-08-26T12:05:43.618Z,9.63
2022-08-26T12:08:19.520Z,9.73
2022-08-26T12:10:48.386Z,10.20
2022-08-26T12:13:23.807Z,8.68
2022-08-26T12:15:55.658Z,9.50
2022-08-26T12:18:29.371Z,9.75
2022-08-26T12:21:01.701Z,9.35
2022-08-26T12:23:42.103Z,8.88
2022-08-26T12:26:20.084Z,8.50
2022-08-26T12:28:52.784Z,8.68
2022-08-26T12:31:32.614Z,10.25
2022-08-26T12:34:02.379Z,10.63
2022-08-26T12:36:33.777Z,9.13
2022-08-26T12:39:12.931Z,9.25
2022-08-26T12:41:47.741Z,9.18
2022-08-26T12:44:38.074Z,9.38
2022-08-26T12:47:13.321Z,9.70
2022-08-26T12:49:46.503Z,8.98
2022-08-26T12:52:30.855Z,9.88
2022-08-26T12:55:03.433Z,8.88
2022-08-26T12:57:36.075Z,9.27
2022-08-26T13:00:31.100Z,8.80
2022-08-26T13:02:59.757Z,8.35
2022-08-26T13:05:48.678Z,8.30
2022-08-26T13:08:26.469Z,8.75
2022-08-26T13:11:10.253Z,8.55
2022-08-26T13:13:40.420Z,7.80
2022-08-26T13:16:08.538Z,8.70
2022-08-26T13:18:36.817Z,7.75
2022-08-26T13:21:10.811Z,8.27
2022-08-26T13:23:42.401Z,8.35
2022-08-26T13:26:12.102Z,7.97
2022-08-26T13:28:40.512Z,7.75
2022-08-26T13:31:09.978Z,7.82
2022-08-26T13:33:39.273Z,7.68
2022-08-26T13:36:08.727Z,7.63
2022-08-26T13:38:36.852Z,7.40
2022-08-26T13:41:05.895Z,7.00
2022-08-26T13:43:35.722Z,7.43
2022-08-26T13:46:04.098Z,8.20
2022-08-26T13:48:34.192Z,8.48
2022-08-26T13:51:03.513Z,8.00
2022-08-26T13:53:37.240Z,8.05
2022-08-26T13:56:08.035Z,8.20
2022-08-26T13:58:39.739Z,8.02
2022-08-26T14:01:08.720Z,8.30
2022-08-26T14:03:36.749Z,7.35
2022-08-26T14:06:07.575Z,11.48
2022-08-26T14:08:37.001Z,14.88
2022-08-26T14:11:06.884Z,14.88
2022-08-26T14:13:35.376Z,14.68
2022-08-26T14:16:08.928Z,13.88
2022-08-26T14:18:45.192Z,16.15
2022-08-26T14:21:15.707Z,15.27
2022-08-26T14:23:45.364Z,15.30
2022-08-26T14:26:16.833Z,13.23
2022-08-26T14:28:56.997Z,12.38
2022-08-26T14:31:27.232Z,13.57
2022-08-26T14:33:57.700Z,13.65
2022-08-26T14:36:32.624Z,13.30
2022-08-26T14:39:04.414Z,11.50
2022-08-26T14:41:33.666Z,10.63
2022-08-26T14:44:05.107Z,9.95
2022-08-26T14:46:42.169Z,9.88
2022-08-26T14:49:12.555Z,9.60
2022-08-26T14:51:41.022Z,9.27
2022-08-26T14:54:14.847Z,7.18
2022-08-26T14:56:53.445Z,7.00
2022-08-26T14:59:24.664Z,7.03
2022-08-26T15:01:54.869Z,6.80
2022-08-26T15:04:24.935Z,6.90
2022-08-26T15:06:53.785Z,6.90
2022-08-26T15:09:22.379Z,8.38
2022-08-26T15:11:53.204Z,8.23
2022-08-26T15:14:22.237Z,8.90
2022-08-26T15:16:52.712Z,9.38
2022-08-26T15:19:23.940Z,9.73
2022-08-26T15:21:53.188Z,10.32
2022-08-26T15:24:24.911Z,12.07
2022-08-26T15:26:53.754Z,13.27
2022-08-26T15:29:23.752Z,14.20
2022-08-26T15:31:51.989Z,14.60
2022-08-26T15:34:26.322Z,14.70
2022-08-26T15:36:55.217Z,15.23
2022-08-26T15:39:23.621Z,14.88
2022-08-26T15:41:52.360Z,16.52
2022-08-26T15:44:20.929Z,16.02
2022-08-26T15:46:52.473Z,16.83
2022-08-26T15:49:24.707Z,16.13
2022-08-26T15:51:54.666Z,16.92
2022-08-26T15:54:24.439Z,17.05
2022-08-26T15:56:53.184Z,16.05
2022-08-26T15:59:23.043Z,15.65
2022-08-26T16:01:52.173Z,15.70
2022-08-26T16:04:20.680Z,16.42
2022-08-26T16:06:52.364Z,15.20
2022-08-26T16:09:24.266Z,14.93
2022-08-26T16:11:52.906Z,15.20
2022-08-26T16:14:21.112Z,13.88
2022-08-26T16:16:50.789Z,14.70
2022-08-26T16:19:19.625Z,14.27
2022-08-26T16:21:48.188Z,13.88
2022-08-26T16:24:29.769Z,14.07
2022-08-26T16:26:58.959Z,13.38
2022-08-26T16:29:27.858Z,13.77
2022-08-26T16:31:56.021Z,13.13
2022-08-26T16:34:24.356Z,12.88
2022-08-26T16:36:53.023Z,13.43
2022-08-26T16:39:23.039Z,12.57
2022-08-26T16:41:51.008Z,12.80
2022-08-26T16:44:19.535Z,12.82
2022-08-26T16:46:48.233Z,12.60
2022-08-26T16:49:18.812Z,12.07
2022-08-26T16:51:47.075Z,12.07
2022-08-26T16:54:15.679Z,12.27
2022-08-26T16:56:45.530Z,12.82
2022-08-26T16:59:13.928Z,12.18
2022-08-26T17:01:42.513Z,13.27
2022-08-26T17:04:11.424Z,14.63
2022-08-26T17:06:40.162Z,16.58
2022-08-26T17:09:08.684Z,17.77
2022-08-26T17:11:37.881Z,18.27
2022-08-26T17:14:07.787Z,17.10
2022-08-26T17:16:35.831Z,17.02
2022-08-26T17:19:05.950Z,19.55
2022-08-26T17:21:36.874Z,20.60
2022-08-26T17:24:06.667Z,19.77
2022-08-26T17:26:37.912Z,19.73
2022-08-26T17:29:08.612Z,20.20
2022-08-26T17:31:37.532Z,21.27
2022-08-26T17:34:08.839Z,20.90
2022-08-26T17:36:37.043Z,20.80
2022-08-26T17:39:07.120Z,20.95
2022-08-26T17:41:35.653Z,20.98
2022-08-26T17:44:04.505Z,22.50
2022-08-26T17:46:38.194Z,23.00
2022-08-26T17:49:10.165Z,21.58
2022-08-26T17:51:38.110Z,22.83
2022-08-26T17:54:07.307Z,23.13
2022-08-26T17:56:35.714Z,23.33
2022-08-26T17:59:04.283Z,22.85
2022-08-26T18:01:37.613Z,22.70
2022-08-26T18:04:07.406Z,23.77
2022-08-26T18:06:35.882Z,22.75
2022-08-26T18:09:04.327Z,23.45
2022-08-26T18:11:34.821Z,22.52
2022-08-26T18:14:03.145Z,23.42
2022-08-26T18:16:31.817Z,23.80
2022-08-26T18:19:01.638Z,22.65
2022-08-26T18:21:30.679Z,22.17
2022-08-26T18:23:59.136Z,23.92
2022-08-26T18:26:29.105Z,21.55
2022-08-26T18:28:57.475Z,22.83
2022-08-26T18:31:26.746Z,20.95
2022-08-26T18:33:55.779Z,22.15
2022-08-26T18:36:30.132Z,22.63
2022-08-26T18:38:58.785Z,21.15
2022-08-26T18:41:29.654Z,23.02
2022-08-26T18:43:59.473Z,19.77
2022-08-26T18:46:29.416Z,21.80
2022-08-26T18:48:59.235Z,20.60
2022-08-26T18:51:34.526Z,21.20
2022-08-26T18:54:05.556Z,20.35
2022-08-26T18:56:34.697Z,20.27
2022-08-26T18:59:04.703Z,20.88
2022-08-26T19:01:33.374Z,20.85
2022-08-26T19:04:04.301Z,20.60
2022-08-26T19:06:35.535Z,20.38
2022-08-26T19:09:04.459Z,20.35
2022-08-26T19:11:38.347Z,20.00
2022-08-26T19:14:13.671Z,19.73
2022-08-26T19:16:43.505Z,19.95
2022-08-26T19:19:11.814Z,18.67
2022-08-26T19:21:41.332Z,19.27
2022-08-26T19:24:15.274Z,20.30
2022-08-26T19:26:43.910Z,20.48
2022-08-26T19:29:12.318Z,20.63
2022-08-26T19:31:42.229Z,19.13
2022-08-26T19:34:12.824Z,19.42
2022-08-26T19:36:44.823Z,18.33
2022-08-26T19:39:15.025Z,18.42
2022-08-26T19:41:44.225Z,19.50
2022-08-26T19:44:34.313Z,18.65
2022-08-26T19:47:03.592Z,18.08
2022-08-26T19:49:32.075Z,17.73
2022-08-26T19:52:03.910Z,17.40
2022-08-26T19:54:32.115Z,18.35
2022-08-26T19:57:00.847Z,16.60
2022-08-26T19:59:29.284Z,17.45
2022-08-26T20:02:01.064Z,17.92
2022-08-26T20:04:30.258Z,17.13
2022-08-26T20:06:58.828Z,17.23
2022-08-26T20:09:31.143Z,18.08
2022-08-26T20:12:00.181Z,17.17
2022-08-26T20:14:30.612Z,18.38
2022-08-26T20:16:58.952Z,17.65
2022-08-26T20:19:45.507Z,17.65
2022-08-26T20:22:20.102Z,17.65
2022-08-26T20:24:49.614Z,17.63
2022-08-26T20:27:17.864Z,17.55
2022-08-26T20:29:46.234Z,17.52
2022-08-26T20:32:14.921Z,16.98
2022-08-26T20:34:42.991Z,16.90
2022-08-26T20:37:12.404Z,17.30
2022-08-26T20:39:40.291Z,16.13
2022-08-26T20:42:20.174Z,17.05
2022-08-26T20:44:54.500Z,15.52
2022-08-26T20:47:23.784Z,14.90
2022-08-26T20:49:52.678Z,15.43
2022-08-26T20:52:21.430Z,15.95
2022-08-26T20:54:49.275Z,14.98
2022-08-26T20:57:18.937Z,14.10
2022-08-26T20:59:47.362Z,14.60
2022-08-26T21:02:16.583Z,14.27
2022-08-26T21:04:44.800Z,14.38
2022-08-26T21:07:13.230Z,14.40
2022-08-26T21:09:41.375Z,15.43
2022-08-26T21:12:10.145Z,15.25
2022-08-26T21:14:39.630Z,13.80
2022-08-26T21:17:07.917Z,14.38
2022-08-26T21:19:35.662Z,14.43
2022-08-26T21:22:04.136Z,14.38
2022-08-26T21:24:32.338Z,15.20
2022-08-26T21:27:00.758Z,13.75
2022-08-26T21:29:29.065Z,13.85
2022-08-26T21:31:58.910Z,14.90
2022-08-26T21:34:27.158Z,14.05
2022-08-26T21:36:55.141Z,13.07
2022-08-26T21:39:23.448Z,14.02
2022-08-26T21:41:51.533Z,13.57
2022-08-26T21:44:19.473Z,13.35
2022-08-26T21:46:49.167Z,13.55
2022-08-26T21:49:18.665Z,13.95
2022-08-26T21:51:49.355Z,13.07
2022-08-26T21:54:18.388Z,13.73
2022-08-26T21:56:47.901Z,13.75
2022-08-26T21:59:17.417Z,13.40
2022-08-26T22:01:45.488Z,13.25
2022-08-26T22:04:13.603Z,14.07
2022-08-26T22:06:45.488Z,13.10
2022-08-26T22:09:14.958Z,12.82
2022-08-26T22:11:42.995Z,13.57
2022-08-26T22:14:11.393Z,14.43
2022-08-26T22:16:40.033Z,13.13
2022-08-26T22:19:12.279Z,12.80
2022-08-26T22:21:46.954Z,12.80
2022-08-26T22:24:14.721Z,11.45
2022-08-26T22:26:43.093Z,13.38
2022-08-26T22:29:11.028Z,13.23
2022-08-26T22:31:40.214Z,13.15
2022-08-26T22:34:11.428Z,13.07
2022-08-26T22:36:43.985Z,13.23
2022-08-26T22:39:16.266Z,12.65
2022-08-26T22:41:45.441Z,12.75
2022-08-26T22:44:14.006Z,12.40
2022-08-26T22:46:44.005Z,12.40
2022-08-26T22:49:15.778Z,12.18
2022-08-26T22:51:44.273Z,12.48
2022-08-26T22:54:14.448Z,13.05
2022-08-26T22:56:43.636Z,12.32
2022-08-26T22:59:12.399Z,12.57
2022-08-26T23:01:44.173Z,12.27
2022-08-26T23:04:12.913Z,12.90
2022-08-26T23:06:47.617Z,12.23
2022-08-26T23:09:18.771Z,12.50
2022-08-26T23:11:47.864Z,12.35
2022-08-26T23:14:20.210Z,11.90
2022-08-26T23:16:48.702Z,12.20
2022-08-26T23:19:19.256Z,12.43
2022-08-26T23:21:47.616Z,11.95
2022-08-26T23:24:18.079Z,11.52
2022-08-26T23:26:47.148Z,11.98
2022-08-26T23:29:15.528Z,11.88
2022-08-26T23:31:44.312Z,12.05
2022-08-26T23:34:30.382Z,12.00
2022-08-26T23:36:59.323Z,11.63
2022-08-26T23:39:32.842Z,12.82
2022-08-26T23:42:01.906Z,12.48
2022-08-26T23:44:30.572Z,12.50
2022-08-26T23:46:59.180Z,12.68
2022-08-26T23:49:27.544Z,12.30
2022-08-26T23:52:12.972Z,12.18
2022-08-26T23:54:42.472Z,12.32
2022-08-26T23:57:11.463Z,13.05
2022-08-26T23:59:40.113Z,13.00
